sensor_id;sensor_type;location;lat;lon;timestamp;temperature;humidity
25708;DHT22;13567;61.652;17.100;2022-09-09T00:04:15;4.20;99.90
25708;DHT22;13567;61.652;17.100;2022-09-09T00:09:28;4.10;99.90
25708;DHT22;13567;61.652;17.100;2022-09-09T00:12:08;4.00;99.90
25708;DHT22;13567;61.652;17.100;2022-09-09T00:20:06;4.00;99.90
25708;DHT22;13567;61.652;17.100;2022-09-09T00:22:42;4.00;99.90
25708;DHT22;13567;61.652;17.100;2022-09-09T00:25:17;4.00;99.90
25708;DHT22;13567;61.652;17.100;2022-09-09T00:27:48;4.00;99.90
25708;DHT22;13567;61.652;17.100;2022-09-09T00:32:46;4.10;99.90
25708;DHT22;13567;61.652;17.100;2022-09-09T00:35:18;4.10;99.90
25708;DHT22;13567;61.652;17.100;2022-09-09T00:37:48;4.10;99.90
25708;DHT22;13567;61.652;17.100;2022-09-09T00:40:27;4.10;99.90
25708;DHT22;13567;61.652;17.100;2022-09-09T00:43:24;4.10;99.90
25708;DHT22;13567;61.652;17.100;2022-09-09T00:54:37;4.00;99.90
25708;DHT22;13567;61.652;17.100;2022-09-09T01:03:02;3.80;99.90
25708;DHT22;13567;61.652;17.100;2022-09-09T01:05:35;3.80;99.90
25708;DHT22;13567;61.652;17.100;2022-09-09T01:08:07;3.80;99.90
25708;DHT22;13567;61.652;17.100;2022-09-09T01:13:14;3.70;99.90
25708;DHT22;13567;61.652;17.100;2022-09-09T01:15:42;3.80;99.90
25708;DHT22;13567;61.652;17.100;2022-09-09T01:18:13;3.70;99.90
25708;DHT22;13567;61.652;17.100;2022-09-09T01:20:55;3.70;99.90
25708;DHT22;13567;61.652;17.100;2022-09-09T01:28:54;3.60;99.90
25708;DHT22;13567;61.652;17.100;2022-09-09T01:31:27;3.50;99.90
25708;DHT22;13567;61.652;17.100;2022-09-09T01:33:55;3.40;99.90
25708;DHT22;13567;61.652;17.100;2022-09-09T01:36:34;3.40;99.90
25708;DHT22;13567;61.652;17.100;2022-09-09T01:39:04;3.30;99.90
25708;DHT22;13567;61.652;17.100;2022-09-09T01:41:31;3.20;99.90
25708;DHT22;13567;61.652;17.100;2022-09-09T01:43:59;3.20;99.90
25708;DHT22;13567;61.652;17.100;2022-09-09T01:46:27;3.20;99.90
25708;DHT22;13567;61.652;17.100;2022-09-09T01:48:56;3.30;99.90
25708;DHT22;13567;61.652;17.100;2022-09-09T01:51:24;3.40;99.90
25708;DHT22;13567;61.652;17.100;2022-09-09T01:53:51;3.50;99.90
25708;DHT22;13567;61.652;17.100;2022-09-09T01:56:46;3.60;99.90
25708;DHT22;13567;61.652;17.100;2022-09-09T02:02:13;3.60;99.90
25708;DHT22;13567;61.652;17.100;2022-09-09T02:04:50;3.50;99.90
25708;DHT22;13567;61.652;17.100;2022-09-09T02:10:09;3.50;99.90
25708;DHT22;13567;61.652;17.100;2022-09-09T02:12:43;3.40;99.90
25708;DHT22;13567;61.652;17.100;2022-09-09T02:15:20;3.50;99.90
25708;DHT22;13567;61.652;17.100;2022-09-09T02:17:50;3.60;99.90
25708;DHT22;13567;61.652;17.100;2022-09-09T02:20:19;3.50;99.90
25708;DHT22;13567;61.652;17.100;2022-09-09T02:22:49;3.50;99.90
25708;DHT22;13567;61.652;17.100;2022-09-09T02:25:19;3.40;99.90
25708;DHT22;13567;61.652;17.100;2022-09-09T02:27:47;3.30;99.90
25708;DHT22;13567;61.652;17.100;2022-09-09T02:30:15;3.20;99.90
25708;DHT22;13567;61.652;17.100;2022-09-09T02:32:44;3.20;99.90
25708;DHT22;13567;61.652;17.100;2022-09-09T02:35:19;3.10;99.90
25708;DHT22;13567;61.652;17.100;2022-09-09T02:37:48;3.10;99.90
25708;DHT22;13567;61.652;17.100;2022-09-09T02:40:17;3.00;99.90
25708;DHT22;13567;61.652;17.100;2022-09-09T02:42:46;2.90;99.90
25708;DHT22;13567;61.652;17.100;2022-09-09T02:45:18;2.90;99.90
25708;DHT22;13567;61.652;17.100;2022-09-09T02:47:54;3.00;99.90
25708;DHT22;13567;61.652;17.100;2022-09-09T02:50:33;3.00;99.90
25708;DHT22;13567;61.652;17.100;2022-09-09T02:55:55;3.10;99.90
25708;DHT22;13567;61.652;17.100;2022-09-09T02:58:23;3.00;99.90
25708;DHT22;13567;61.652;17.100;2022-09-09T03:00:51;3.10;99.90
25708;DHT22;13567;61.652;17.100;2022-09-09T03:03:18;3.10;99.90
25708;DHT22;13567;61.652;17.100;2022-09-09T03:05:46;3.10;99.90
25708;DHT22;13567;61.652;17.100;2022-09-09T03:08:13;3.10;99.90
25708;DHT22;13567;61.652;17.100;2022-09-09T03:10:40;3.10;99.90
25708;DHT22;13567;61.652;17.100;2022-09-09T03:13:08;3.20;99.90
25708;DHT22;13567;61.652;17.100;2022-09-09T03:15:35;3.20;99.90
25708;DHT22;13567;61.652;17.100;2022-09-09T03:18:02;3.10;99.90
25708;DHT22;13567;61.652;17.100;2022-09-09T03:20:30;3.00;99.90
25708;DHT22;13567;61.652;17.100;2022-09-09T03:22:59;3.00;99.90
25708;DHT22;13567;61.652;17.100;2022-09-09T03:25:27;2.90;99.90
25708;DHT22;13567;61.652;17.100;2022-09-09T03:27:55;2.80;99.90
25708;DHT22;13567;61.652;17.100;2022-09-09T03:30:23;2.70;99.90
25708;DHT22;13567;61.652;17.100;2022-09-09T03:32:51;2.70;99.90
25708;DHT22;13567;61.652;17.100;2022-09-09T03:35:19;2.60;99.90
25708;DHT22;13567;61.652;17.100;2022-09-09T03:37:46;2.60;99.90
25708;DHT22;13567;61.652;17.100;2022-09-09T03:40:13;2.60;99.90
25708;DHT22;13567;61.652;17.100;2022-09-09T03:42:40;2.60;99.90
25708;DHT22;13567;61.652;17.100;2022-09-09T03:45:08;2.50;99.90
25708;DHT22;13567;61.652;17.100;2022-09-09T03:47:36;2.50;99.90
25708;DHT22;13567;61.652;17.100;2022-09-09T03:50:05;2.60;99.90
25708;DHT22;13567;61.652;17.100;2022-09-09T03:52:36;2.60;99.90
25708;DHT22;13567;61.652;17.100;2022-09-09T03:55:04;2.70;99.90
25708;DHT22;13567;61.652;17.100;2022-09-09T03:57:32;2.70;99.90
25708;DHT22;13567;61.652;17.100;2022-09-09T04:00:06;2.70;99.90
25708;DHT22;13567;61.652;17.100;2022-09-09T04:02:33;2.80;99.90
25708;DHT22;13567;61.652;17.100;2022-09-09T04:05:01;2.80;99.90
25708;DHT22;13567;61.652;17.100;2022-09-09T04:07:28;2.80;99.90
25708;DHT22;13567;61.652;17.100;2022-09-09T04:09:55;2.90;99.90
25708;DHT22;13567;61.652;17.100;2022-09-09T04:12:22;2.90;99.90
25708;DHT22;13567;61.652;17.100;2022-09-09T04:14:49;3.00;99.90
25708;DHT22;13567;61.652;17.100;2022-09-09T04:17:16;3.10;99.90
25708;DHT22;13567;61.652;17.100;2022-09-09T04:19:44;3.20;99.90
25708;DHT22;13567;61.652;17.100;2022-09-09T04:22:11;3.20;99.90
25708;DHT22;13567;61.652;17.100;2022-09-09T04:24:38;3.20;99.90
25708;DHT22;13567;61.652;17.100;2022-09-09T04:27:05;3.30;99.90
25708;DHT22;13567;61.652;17.100;2022-09-09T04:29:32;3.20;99.90
25708;DHT22;13567;61.652;17.100;2022-09-09T04:32:00;3.30;99.90
25708;DHT22;13567;61.652;17.100;2022-09-09T04:34:29;3.40;99.90
25708;DHT22;13567;61.652;17.100;2022-09-09T04:36:57;3.40;99.90
25708;DHT22;13567;61.652;17.100;2022-09-09T04:39:24;3.40;99.90
25708;DHT22;13567;61.652;17.100;2022-09-09T04:41:51;3.50;99.90
25708;DHT22;13567;61.652;17.100;2022-09-09T04:44:18;3.50;99.90
25708;DHT22;13567;61.652;17.100;2022-09-09T04:46:45;3.60;99.90
25708;DHT22;13567;61.652;17.100;2022-09-09T04:49:12;3.60;99.90
25708;DHT22;13567;61.652;17.100;2022-09-09T04:51:41;3.60;99.90
25708;DHT22;13567;61.652;17.100;2022-09-09T04:54:08;3.70;99.90
25708;DHT22;13567;61.652;17.100;2022-09-09T04:56:35;3.70;99.90
25708;DHT22;13567;61.652;17.100;2022-09-09T04:59:03;3.70;99.90
25708;DHT22;13567;61.652;17.100;2022-09-09T05:01:30;3.80;99.90
25708;DHT22;13567;61.652;17.100;2022-09-09T05:03:59;3.80;99.90
25708;DHT22;13567;61.652;17.100;2022-09-09T05:06:26;3.90;99.90
25708;DHT22;13567;61.652;17.100;2022-09-09T05:08:53;4.00;99.90
25708;DHT22;13567;61.652;17.100;2022-09-09T05:11:21;4.10;99.90
25708;DHT22;13567;61.652;17.100;2022-09-09T05:13:50;4.30;99.90
25708;DHT22;13567;61.652;17.100;2022-09-09T05:16:18;4.40;99.90
25708;DHT22;13567;61.652;17.100;2022-09-09T05:18:46;4.50;99.90
25708;DHT22;13567;61.652;17.100;2022-09-09T05:21:14;4.50;99.90
25708;DHT22;13567;61.652;17.100;2022-09-09T05:23:42;4.60;99.90
25708;DHT22;13567;61.652;17.100;2022-09-09T05:26:13;4.70;99.90
25708;DHT22;13567;61.652;17.100;2022-09-09T05:28:43;4.90;99.90
25708;DHT22;13567;61.652;17.100;2022-09-09T05:31:12;4.90;99.90
25708;DHT22;13567;61.652;17.100;2022-09-09T05:33:41;5.10;99.90
25708;DHT22;13567;61.652;17.100;2022-09-09T05:36:14;5.10;99.90
25708;DHT22;13567;61.652;17.100;2022-09-09T05:38:43;5.20;99.90
25708;DHT22;13567;61.652;17.100;2022-09-09T05:41:11;5.40;99.90
25708;DHT22;13567;61.652;17.100;2022-09-09T05:43:39;5.50;99.90
25708;DHT22;13567;61.652;17.100;2022-09-09T05:46:08;5.60;99.90
25708;DHT22;13567;61.652;17.100;2022-09-09T05:48:37;5.80;99.90
25708;DHT22;13567;61.652;17.100;2022-09-09T05:51:10;5.90;99.90
25708;DHT22;13567;61.652;17.100;2022-09-09T05:53:39;6.00;99.90
25708;DHT22;13567;61.652;17.100;2022-09-09T05:56:09;6.10;99.90
25708;DHT22;13567;61.652;17.100;2022-09-09T05:58:39;6.20;99.90
25708;DHT22;13567;61.652;17.100;2022-09-09T06:01:08;6.30;99.90
25708;DHT22;13567;61.652;17.100;2022-09-09T06:03:41;6.40;99.90
25708;DHT22;13567;61.652;17.100;2022-09-09T06:06:11;6.50;99.90
25708;DHT22;13567;61.652;17.100;2022-09-09T06:08:40;6.60;99.90
25708;DHT22;13567;61.652;17.100;2022-09-09T06:11:18;6.70;99.90
25708;DHT22;13567;61.652;17.100;2022-09-09T06:13:45;6.90;99.90
25708;DHT22;13567;61.652;17.100;2022-09-09T06:16:14;7.00;99.90
25708;DHT22;13567;61.652;17.100;2022-09-09T06:18:42;7.20;99.90
25708;DHT22;13567;61.652;17.100;2022-09-09T06:21:18;7.20;99.90
25708;DHT22;13567;61.652;17.100;2022-09-09T06:23:45;7.40;99.90
25708;DHT22;13567;61.652;17.100;2022-09-09T06:26:19;7.50;99.90
25708;DHT22;13567;61.652;17.100;2022-09-09T06:28:47;7.70;99.90
25708;DHT22;13567;61.652;17.100;2022-09-09T06:31:17;7.90;99.90
25708;DHT22;13567;61.652;17.100;2022-09-09T06:33:53;8.10;99.90
25708;DHT22;13567;61.652;17.100;2022-09-09T06:36:30;8.20;99.90
25708;DHT22;13567;61.652;17.100;2022-09-09T06:38:58;8.40;99.90
25708;DHT22;13567;61.652;17.100;2022-09-09T06:41:28;8.50;99.90
25708;DHT22;13567;61.652;17.100;2022-09-09T06:43:55;8.70;99.90
25708;DHT22;13567;61.652;17.100;2022-09-09T06:46:27;8.80;99.90
25708;DHT22;13567;61.652;17.100;2022-09-09T06:48:55;9.00;99.90
25708;DHT22;13567;61.652;17.100;2022-09-09T06:51:25;9.10;99.90
25708;DHT22;13567;61.652;17.100;2022-09-09T06:53:54;9.30;99.90
25708;DHT22;13567;61.652;17.100;2022-09-09T06:56:35;9.50;99.90
25708;DHT22;13567;61.652;17.100;2022-09-09T06:59:06;9.70;99.90
25708;DHT22;13567;61.652;17.100;2022-09-09T07:01:37;9.80;99.90
25708;DHT22;13567;61.652;17.100;2022-09-09T07:04:06;9.80;99.90
25708;DHT22;13567;61.652;17.100;2022-09-09T07:06:39;9.90;99.90
25708;DHT22;13567;61.652;17.100;2022-09-09T07:09:09;9.90;99.90
25708;DHT22;13567;61.652;17.100;2022-09-09T07:11:48;9.90;99.90
25708;DHT22;13567;61.652;17.100;2022-09-09T07:14:17;9.90;99.90
25708;DHT22;13567;61.652;17.100;2022-09-09T07:16:45;10.00;99.90
25708;DHT22;13567;61.652;17.100;2022-09-09T07:19:13;10.00;99.90
25708;DHT22;13567;61.652;17.100;2022-09-09T07:21:41;10.10;99.90
25708;DHT22;13567;61.652;17.100;2022-09-09T07:24:08;10.10;99.90
25708;DHT22;13567;61.652;17.100;2022-09-09T07:26:38;10.20;99.90
25708;DHT22;13567;61.652;17.100;2022-09-09T07:29:05;10.30;99.90
25708;DHT22;13567;61.652;17.100;2022-09-09T07:31:35;10.40;99.90
25708;DHT22;13567;61.652;17.100;2022-09-09T07:34:04;10.50;99.90
25708;DHT22;13567;61.652;17.100;2022-09-09T07:36:34;10.50;99.90
25708;DHT22;13567;61.652;17.100;2022-09-09T07:39:06;10.60;99.90
25708;DHT22;13567;61.652;17.100;2022-09-09T07:41:42;10.80;99.90
25708;DHT22;13567;61.652;17.100;2022-09-09T07:44:15;11.00;99.90
25708;DHT22;13567;61.652;17.100;2022-09-09T07:46:43;11.30;99.90
25708;DHT22;13567;61.652;17.100;2022-09-09T07:49:12;11.70;99.90
25708;DHT22;13567;61.652;17.100;2022-09-09T07:51:41;12.20;99.90
25708;DHT22;13567;61.652;17.100;2022-09-09T07:54:11;12.50;99.90
25708;DHT22;13567;61.652;17.100;2022-09-09T07:56:40;12.80;99.90
25708;DHT22;13567;61.652;17.100;2022-09-09T07:59:08;12.70;99.90
25708;DHT22;13567;61.652;17.100;2022-09-09T08:01:42;13.30;99.90
25708;DHT22;13567;61.652;17.100;2022-09-09T08:04:13;15.40;99.90
25708;DHT22;13567;61.652;17.100;2022-09-09T08:06:52;17.30;99.90
25708;DHT22;13567;61.652;17.100;2022-09-09T08:09:20;18.70;99.90
25708;DHT22;13567;61.652;17.100;2022-09-09T08:11:48;20.10;99.90
25708;DHT22;13567;61.652;17.100;2022-09-09T08:14:15;21.50;99.90
25708;DHT22;13567;61.652;17.100;2022-09-09T08:16:47;22.30;99.90
25708;DHT22;13567;61.652;17.100;2022-09-09T08:19:14;23.40;96.60
25708;DHT22;13567;61.652;17.100;2022-09-09T08:21:44;23.90;94.30
25708;DHT22;13567;61.652;17.100;2022-09-09T08:24:12;24.10;92.00
25708;DHT22;13567;61.652;17.100;2022-09-09T08:26:46;24.20;90.70
25708;DHT22;13567;61.652;17.100;2022-09-09T08:29:17;24.20;89.10
25708;DHT22;13567;61.652;17.100;2022-09-09T08:31:48;24.10;86.40
25708;DHT22;13567;61.652;17.100;2022-09-09T08:34:15;24.70;83.90
25708;DHT22;13567;61.652;17.100;2022-09-09T08:36:44;25.40;81.80
25708;DHT22;13567;61.652;17.100;2022-09-09T08:39:17;25.40;79.10
25708;DHT22;13567;61.652;17.100;2022-09-09T08:50:26;23.30;81.80
25708;DHT22;13567;61.652;17.100;2022-09-09T08:53:05;23.10;83.30
25708;DHT22;13567;61.652;17.100;2022-09-09T08:55:58;23.20;81.70
25708;DHT22;13567;61.652;17.100;2022-09-09T08:58:28;24.30;80.00
25708;DHT22;13567;61.652;17.100;2022-09-09T09:09:30;24.40;73.00
25708;DHT22;13567;61.652;17.100;2022-09-09T09:12:01;24.40;76.40
25708;DHT22;13567;61.652;17.100;2022-09-09T09:14:31;23.60;76.50
25708;DHT22;13567;61.652;17.100;2022-09-09T09:19:34;22.00;82.60
25708;DHT22;13567;61.652;17.100;2022-09-09T09:24:53;20.90;84.20
25708;DHT22;13567;61.652;17.100;2022-09-09T09:28:00;19.30;87.90
25708;DHT22;13567;61.652;17.100;2022-09-09T09:30:36;19.60;89.80
25708;DHT22;13567;61.652;17.100;2022-09-09T09:33:22;18.90;89.00
25708;DHT22;13567;61.652;17.100;2022-09-09T09:36:10;18.40;90.30
25708;DHT22;13567;61.652;17.100;2022-09-09T09:38:37;18.20;91.10
25708;DHT22;13567;61.652;17.100;2022-09-09T09:41:40;18.20;91.80
25708;DHT22;13567;61.652;17.100;2022-09-09T09:44:29;17.60;93.40
25708;DHT22;13567;61.652;17.100;2022-09-09T09:49:57;17.40;93.70
25708;DHT22;13567;61.652;17.100;2022-09-09T09:52:30;17.40;92.90
25708;DHT22;13567;61.652;17.100;2022-09-09T09:54:59;16.70;93.10
25708;DHT22;13567;61.652;17.100;2022-09-09T09:58:06;16.50;93.10
25708;DHT22;13567;61.652;17.100;2022-09-09T10:00:33;16.40;93.30
25708;DHT22;13567;61.652;17.100;2022-09-09T10:03:23;16.50;92.50
25708;DHT22;13567;61.652;17.100;2022-09-09T10:05:50;16.30;92.00
25708;DHT22;13567;61.652;17.100;2022-09-09T10:08:18;15.70;92.20
25708;DHT22;13567;61.652;17.100;2022-09-09T10:19:20;15.00;96.70
25708;DHT22;13567;61.652;17.100;2022-09-09T10:24:52;15.00;96.70
25708;DHT22;13567;61.652;17.100;2022-09-09T10:27:38;14.80;96.80
25708;DHT22;13567;61.652;17.100;2022-09-09T10:31:04;14.70;97.10
25708;DHT22;13567;61.652;17.100;2022-09-09T10:33:19;14.60;98.50
25708;DHT22;13567;61.652;17.100;2022-09-09T10:38:43;14.60;99.40
25708;DHT22;13567;61.652;17.100;2022-09-09T10:42:12;14.70;99.10
25708;DHT22;13567;61.652;17.100;2022-09-09T10:47:00;14.30;99.00
25708;DHT22;13567;61.652;17.100;2022-09-09T10:50:25;14.30;98.80
25708;DHT22;13567;61.652;17.100;2022-09-09T10:56:10;14.20;99.30
25708;DHT22;13567;61.652;17.100;2022-09-09T10:58:52;14.00;99.20
25708;DHT22;13567;61.652;17.100;2022-09-09T11:01:37;13.90;99.40
25708;DHT22;13567;61.652;17.100;2022-09-09T11:04:17;14.00;99.90
25708;DHT22;13567;61.652;17.100;2022-09-09T11:06:48;14.10;99.90
25708;DHT22;13567;61.652;17.100;2022-09-09T11:09:53;14.30;99.10
25708;DHT22;13567;61.652;17.100;2022-09-09T11:12:23;14.20;98.30
25708;DHT22;13567;61.652;17.100;2022-09-09T11:14:57;14.10;99.20
25708;DHT22;13567;61.652;17.100;2022-09-09T11:18:01;14.10;99.90
25708;DHT22;13567;61.652;17.100;2022-09-09T11:20:30;14.50;99.90
25708;DHT22;13567;61.652;17.100;2022-09-09T11:23:09;14.60;99.70
25708;DHT22;13567;61.652;17.100;2022-09-09T11:25:52;14.40;99.10
25708;DHT22;13567;61.652;17.100;2022-09-09T11:42:40;14.40;99.20
25708;DHT22;13567;61.652;17.100;2022-09-09T11:45:26;14.30;99.10
25708;DHT22;13567;61.652;17.100;2022-09-09T11:48:03;14.20;99.40
25708;DHT22;13567;61.652;17.100;2022-09-09T11:50:37;14.30;98.70
25708;DHT22;13567;61.652;17.100;2022-09-09T11:53:19;14.40;97.90
25708;DHT22;13567;61.652;17.100;2022-09-09T11:56:12;14.80;99.00
25708;DHT22;13567;61.652;17.100;2022-09-09T11:59:01;15.20;98.30
25708;DHT22;13567;61.652;17.100;2022-09-09T12:04:13;18.00;95.40
25708;DHT22;13567;61.652;17.100;2022-09-09T12:09:59;19.60;87.90
25708;DHT22;13567;61.652;17.100;2022-09-09T12:12:30;19.00;88.80
25708;DHT22;13567;61.652;17.100;2022-09-09T12:17:29;17.80;90.10
25708;DHT22;13567;61.652;17.100;2022-09-09T12:20:15;17.10;90.80
25708;DHT22;13567;61.652;17.100;2022-09-09T12:23:07;17.00;91.80
25708;DHT22;13567;61.652;17.100;2022-09-09T12:31:38;17.70;91.60
25708;DHT22;13567;61.652;17.100;2022-09-09T12:34:41;18.00;91.60
25708;DHT22;13567;61.652;17.100;2022-09-09T12:37:38;20.10;87.60
25708;DHT22;13567;61.652;17.100;2022-09-09T12:40:23;21.70;80.20
25708;DHT22;13567;61.652;17.100;2022-09-09T12:42:50;21.20;78.50
25708;DHT22;13567;61.652;17.100;2022-09-09T12:45:31;19.90;81.90
25708;DHT22;13567;61.652;17.100;2022-09-09T12:48:03;19.00;84.90
25708;DHT22;13567;61.652;17.100;2022-09-09T12:50:43;17.80;89.70
25708;DHT22;13567;61.652;17.100;2022-09-09T12:55:54;16.50;90.30
25708;DHT22;13567;61.652;17.100;2022-09-09T12:58:22;16.30;91.70
25708;DHT22;13567;61.652;17.100;2022-09-09T13:00:54;15.90;92.30
25708;DHT22;13567;61.652;17.100;2022-09-09T13:03:24;15.80;93.70
25708;DHT22;13567;61.652;17.100;2022-09-09T13:05:53;15.80;93.70
25708;DHT22;13567;61.652;17.100;2022-09-09T13:08:20;15.90;94.10
25708;DHT22;13567;61.652;17.100;2022-09-09T13:10:57;15.90;94.80
25708;DHT22;13567;61.652;17.100;2022-09-09T13:13:35;15.80;94.20
25708;DHT22;13567;61.652;17.100;2022-09-09T13:16:05;15.50;93.70
25708;DHT22;13567;61.652;17.100;2022-09-09T13:18:49;15.40;93.00
25708;DHT22;13567;61.652;17.100;2022-09-09T13:21:18;15.00;92.50
25708;DHT22;13567;61.652;17.100;2022-09-09T13:23:50;15.00;93.90
25708;DHT22;13567;61.652;17.100;2022-09-09T13:26:26;14.80;93.80
25708;DHT22;13567;61.652;17.100;2022-09-09T13:28:54;14.70;94.50
25708;DHT22;13567;61.652;17.100;2022-09-09T13:31:27;14.70;95.30
25708;DHT22;13567;61.652;17.100;2022-09-09T13:33:55;14.60;95.30
25708;DHT22;13567;61.652;17.100;2022-09-09T13:36:33;14.40;96.10
25708;DHT22;13567;61.652;17.100;2022-09-09T13:39:03;14.40;95.90
25708;DHT22;13567;61.652;17.100;2022-09-09T13:41:33;14.50;96.50
25708;DHT22;13567;61.652;17.100;2022-09-09T13:44:02;14.50;96.30
25708;DHT22;13567;61.652;17.100;2022-09-09T13:46:38;14.40;96.60
25708;DHT22;13567;61.652;17.100;2022-09-09T13:51:44;14.10;97.90
25708;DHT22;13567;61.652;17.100;2022-09-09T13:54:15;14.10;97.90
25708;DHT22;13567;61.652;17.100;2022-09-09T13:56:44;14.00;98.40
25708;DHT22;13567;61.652;17.100;2022-09-09T13:59:15;13.90;99.00
25708;DHT22;13567;61.652;17.100;2022-09-09T14:01:43;13.90;98.40
25708;DHT22;13567;61.652;17.100;2022-09-09T14:04:10;13.90;99.10
25708;DHT22;13567;61.652;17.100;2022-09-09T14:06:38;13.90;99.20
25708;DHT22;13567;61.652;17.100;2022-09-09T14:09:09;13.80;99.70
25708;DHT22;13567;61.652;17.100;2022-09-09T14:11:38;13.80;99.50
25708;DHT22;13567;61.652;17.100;2022-09-09T14:14:05;13.80;99.90
25708;DHT22;13567;61.652;17.100;2022-09-09T14:16:32;13.80;99.90
25708;DHT22;13567;61.652;17.100;2022-09-09T14:18:59;13.80;99.90
25708;DHT22;13567;61.652;17.100;2022-09-09T14:21:28;13.90;99.90
25708;DHT22;13567;61.652;17.100;2022-09-09T14:23:55;13.80;99.90
25708;DHT22;13567;61.652;17.100;2022-09-09T14:26:25;13.80;99.90
25708;DHT22;13567;61.652;17.100;2022-09-09T14:28:53;13.80;99.90
25708;DHT22;13567;61.652;17.100;2022-09-09T14:31:23;13.80;99.90
25708;DHT22;13567;61.652;17.100;2022-09-09T14:33:50;13.90;99.90
25708;DHT22;13567;61.652;17.100;2022-09-09T14:36:18;13.90;99.90
25708;DHT22;13567;61.652;17.100;2022-09-09T14:38:45;13.90;99.90
25708;DHT22;13567;61.652;17.100;2022-09-09T14:41:15;14.00;99.90
25708;DHT22;13567;61.652;17.100;2022-09-09T14:43:52;14.00;99.90
25708;DHT22;13567;61.652;17.100;2022-09-09T14:46:21;14.00;99.90
25708;DHT22;13567;61.652;17.100;2022-09-09T14:48:48;14.00;99.90
25708;DHT22;13567;61.652;17.100;2022-09-09T14:51:18;14.00;99.90
25708;DHT22;13567;61.652;17.100;2022-09-09T14:53:46;14.00;99.90
25708;DHT22;13567;61.652;17.100;2022-09-09T14:56:18;14.00;99.90
25708;DHT22;13567;61.652;17.100;2022-09-09T14:58:46;13.90;99.90
25708;DHT22;13567;61.652;17.100;2022-09-09T15:01:16;13.90;99.90
25708;DHT22;13567;61.652;17.100;2022-09-09T15:03:59;13.90;99.90
25708;DHT22;13567;61.652;17.100;2022-09-09T15:06:29;13.90;99.90
25708;DHT22;13567;61.652;17.100;2022-09-09T15:08:56;13.90;99.90
25708;DHT22;13567;61.652;17.100;2022-09-09T15:11:32;13.80;99.90
25708;DHT22;13567;61.652;17.100;2022-09-09T15:14:06;13.80;99.90
25708;DHT22;13567;61.652;17.100;2022-09-09T15:16:33;13.80;99.90
25708;DHT22;13567;61.652;17.100;2022-09-09T15:19:02;13.70;99.90
25708;DHT22;13567;61.652;17.100;2022-09-09T15:21:31;13.70;99.90
25708;DHT22;13567;61.652;17.100;2022-09-09T15:23:59;13.60;99.90
25708;DHT22;13567;61.652;17.100;2022-09-09T15:26:27;13.60;99.90
25708;DHT22;13567;61.652;17.100;2022-09-09T15:28:54;13.50;99.90
25708;DHT22;13567;61.652;17.100;2022-09-09T15:31:23;13.50;99.90
25708;DHT22;13567;61.652;17.100;2022-09-09T15:33:56;13.40;99.90
25708;DHT22;13567;61.652;17.100;2022-09-09T15:36:30;13.40;99.90
25708;DHT22;13567;61.652;17.100;2022-09-09T15:38:59;13.40;99.90
25708;DHT22;13567;61.652;17.100;2022-09-09T15:41:27;13.40;99.90
25708;DHT22;13567;61.652;17.100;2022-09-09T15:43:55;13.40;99.90
25708;DHT22;13567;61.652;17.100;2022-09-09T15:46:35;13.40;99.90
25708;DHT22;13567;61.652;17.100;2022-09-09T15:49:08;13.30;99.90
25708;DHT22;13567;61.652;17.100;2022-09-09T15:51:43;13.30;99.90
25708;DHT22;13567;61.652;17.100;2022-09-09T15:54:16;13.30;99.90
25708;DHT22;13567;61.652;17.100;2022-09-09T15:56:46;13.30;99.90
25708;DHT22;13567;61.652;17.100;2022-09-09T15:59:15;13.20;99.90
25708;DHT22;13567;61.652;17.100;2022-09-09T16:01:42;13.10;99.90
25708;DHT22;13567;61.652;17.100;2022-09-09T16:04:11;13.10;99.90
25708;DHT22;13567;61.652;17.100;2022-09-09T16:06:38;13.00;99.90
25708;DHT22;13567;61.652;17.100;2022-09-09T16:09:07;13.00;99.90
25708;DHT22;13567;61.652;17.100;2022-09-09T16:11:36;13.00;99.90
25708;DHT22;13567;61.652;17.100;2022-09-09T16:14:04;12.90;99.90
25708;DHT22;13567;61.652;17.100;2022-09-09T16:16:33;12.80;99.90
25708;DHT22;13567;61.652;17.100;2022-09-09T16:19:06;12.80;99.90
25708;DHT22;13567;61.652;17.100;2022-09-09T16:21:37;12.80;99.90
25708;DHT22;13567;61.652;17.100;2022-09-09T16:24:05;12.80;99.90
25708;DHT22;13567;61.652;17.100;2022-09-09T16:26:35;12.70;99.90
25708;DHT22;13567;61.652;17.100;2022-09-09T16:29:02;12.70;99.90
25708;DHT22;13567;61.652;17.100;2022-09-09T16:31:30;12.60;99.90
25708;DHT22;13567;61.652;17.100;2022-09-09T16:34:01;12.60;99.90
25708;DHT22;13567;61.652;17.100;2022-09-09T16:36:31;12.60;99.90
25708;DHT22;13567;61.652;17.100;2022-09-09T16:39:03;12.60;99.90
25708;DHT22;13567;61.652;17.100;2022-09-09T16:41:32;12.50;99.90
25708;DHT22;13567;61.652;17.100;2022-09-09T16:44:01;12.50;99.90
25708;DHT22;13567;61.652;17.100;2022-09-09T16:46:30;12.50;99.90
25708;DHT22;13567;61.652;17.100;2022-09-09T16:48:59;12.50;99.90
25708;DHT22;13567;61.652;17.100;2022-09-09T16:51:32;12.40;99.90
25708;DHT22;13567;61.652;17.100;2022-09-09T16:54:01;12.40;99.90
25708;DHT22;13567;61.652;17.100;2022-09-09T16:56:31;12.40;99.90
25708;DHT22;13567;61.652;17.100;2022-09-09T16:59:02;12.40;99.90
25708;DHT22;13567;61.652;17.100;2022-09-09T17:01:32;12.30;99.90
25708;DHT22;13567;61.652;17.100;2022-09-09T17:04:01;12.30;99.90
25708;DHT22;13567;61.652;17.100;2022-09-09T17:06:30;12.30;99.90
25708;DHT22;13567;61.652;17.100;2022-09-09T17:08:59;12.30;99.90
25708;DHT22;13567;61.652;17.100;2022-09-09T17:11:28;12.20;99.90
25708;DHT22;13567;61.652;17.100;2022-09-09T17:13:57;12.20;99.90
25708;DHT22;13567;61.652;17.100;2022-09-09T17:16:26;12.20;99.90
25708;DHT22;13567;61.652;17.100;2022-09-09T17:18:57;12.10;99.90
25708;DHT22;13567;61.652;17.100;2022-09-09T17:21:27;12.10;99.90
25708;DHT22;13567;61.652;17.100;2022-09-09T17:23:55;12.10;99.90
25708;DHT22;13567;61.652;17.100;2022-09-09T17:26:27;12.10;99.90
25708;DHT22;13567;61.652;17.100;2022-09-09T17:28:55;12.00;99.90
25708;DHT22;13567;61.652;17.100;2022-09-09T17:31:26;12.00;99.90
25708;DHT22;13567;61.652;17.100;2022-09-09T17:33:55;12.00;99.90
25708;DHT22;13567;61.652;17.100;2022-09-09T17:36:28;11.90;99.90
25708;DHT22;13567;61.652;17.100;2022-09-09T17:38:55;12.00;99.90
25708;DHT22;13567;61.652;17.100;2022-09-09T17:41:25;12.00;99.90
25708;DHT22;13567;61.652;17.100;2022-09-09T17:43:52;11.90;99.90
25708;DHT22;13567;61.652;17.100;2022-09-09T17:46:36;11.90;99.90
25708;DHT22;13567;61.652;17.100;2022-09-09T17:49:06;11.80;99.90
25708;DHT22;13567;61.652;17.100;2022-09-09T17:51:34;11.80;99.90
25708;DHT22;13567;61.652;17.100;2022-09-09T17:54:04;11.80;99.90
25708;DHT22;13567;61.652;17.100;2022-09-09T17:56:33;11.80;99.90